Glenns Ferry, ID

2:11 PM MDT on October 25, 2014 (GMT -0600)
MesoWest HAMETW ID US UPR | Change Station
CLOSE
Current Station
Personal Weather Station
Location: Glenns Ferry, ID
Elevation: 2506 ft
Nearby Weather Stations

Elev 2506 ft 42.95 °N, 115.41 °W | Updated 1 hour ago

Mostly Cloudy
Mostly Cloudy
79.0 °F
Feels Like 79.0 °F
N
-
Wind Variable Wind from North

Today
High -- | Low -- °F
--% Chance of Precip.
Yesterday
High -- | Low -- °F
Precip. -- in
8:07 AM 6:43 PM
Waxing Crescent, 4% visible
Pressure 29.78 in
Visibility 10.0 miles
Clouds Mostly Cloudy 20000 ft
Dew Point Not available.
Humidity Not available.
Rainfall -999.00 in
Snow Depth Not available.
UV 2 out of 12
Pollen 4.20 out of 12
Ozone Good
PM2.5 Good
Flu Activity No Activity
METAR KMUO 251958Z AUTO 09010KT 10SM BKN200 22/03 A2980 RMK AO2 SLP082 T02150025

More Conditions Fewer Conditions

Pressure 29.78 in
Visibility 10.0 miles
Clouds Mostly Cloudy 20000 ft
Dew Point Not available.
Humidity Not available.
Rainfall -999.00 in
Snow Depth Not available.
UV 2 out of 12
Pollen 4.20 out of 12
Ozone Good
PM2.5 Good
Flu Activity No Activity
METAR KMUO 251958Z AUTO 09010KT 10SM BKN200 22/03 A2980 RMK AO2 SLP082 T02150025

More Conditions Fewer Conditions

10-Day Weather Forecast

Almanac

Astronomy

Oct. 25, 2014 Rise Set
Actual Time 8:07 AM MDT 6:43 PM MDT
Civil Twilight 7:38 AM MDT 7:12 PM MDT
Nautical Twilight 7:05 AM MDT 7:45 PM MDT
Astronomical Twilight 6:32 AM MDT 8:18 PM MDT
Moon 9:52 AM MDT 8:07 PM MDT
Length of Visible Light 11h 34m
Length of Day
10h 36m
Tomorrow will be 2m 42s shorter.
Waxing Crescent, 4% of the Moon is Illuminated
Today
Waxing Crescent
Oct 30
First Quarter
Nov 6
Full
Nov 14
Last Quarter
Nov 22
New

Today's Extremes

State Highs State Lows

Community

WunderPhotos

Upload Photos

1,764,976 photos uploaded!

Nearby

Air Quality

  Air Quality AQ Index Pollutant
Yesterday Good
PM10
Yesterday Good
OZONE
Current Good
PM2.5
Current Good
OZONE
Saturday Good
OZONE
Sunday Good
OZONE
Monday Good
OZONE
Tuesday Good
OZONE

Snow Depth

Station Depth Elevation
Camas Creek Divide 0 in 5710 ft
Trinity Mountain 1 in 7770 ft
Atlanta Summit 0 in 7580 ft
Mud Flat 0 in 5730 ft
Vienna Mine 0 in 8960 ft

Earthquake Activity

City Distance Mag. Time & Date
No recent earthquake activity has been reported nearby.
Minimum magnitude displayed is 2.5.

Coastal Water Temperatures

Place Temperature
No Stations Reporting

Nearby Weather Stations